Sandusky, Ohio
Current Conditions -  °F | °C
As of 3:53 AM on Wednesday 22 Oct 2014 (Local Time) from KPCW Reporting Station
Overcast Overcast  
Wind Chill: 40°   Ceiling: 1700
Heat Index: 46°   Visibility: 10mi
Dew Point: 41°   Wind: 12mph
Humidity: 83%   Direction: 50°NE
Pressure: 30.17"   Gusts: NA
Location:  41.45°N, 82.71°W
Report Text: KPCW 220753Z AUTO 05010KT 10SM OVC017 08/05 A3017 RMK AO2 T00770050 $
Loading
Personal Weather Stations






























Interactive Weather Map
Tropical Storm Tracking
New forecast layout! Learn more

10-Day Weather Forecast

Advertisements
Track Severe Weather on mobile